KEYW Airport Information

Runway Information
Runway 09 Length 4801 ft width 100 ft
Elevation 3 ft Threshold 0 ft Heading 89
Runway 27 Length 4801 ft Width 100 ft
Elevation 3 ft Threshold 0 ft Heading 269
Airport Frequencies
Type A/D Name NAVY KEY W Frequency 124.45 MHZ
Type ASOS Name ASOS Frequency 119.65 MHZ
Type ATIS Name ATIS Frequency 119.675 MHZ
Type CLD Name CLNC DEL Frequency 121.9 MHZ
Type CTAF Name CTAF Frequency 118.2 MHZ
Type FSS Name MIAMI RDO Frequency 122.2 MHZ
Type GND Name GND Frequency 121.9 MHZ
Type TWR Name TWR Frequency 118.2 MHZ
Type UNIC Name UNICOM Frequency 122.95 MHZ
Airport Navaids
Type NDB Name Fish Hook Frequency 332 KHZ
Airport Weather Information & NOTAM
ADDS - METARS form results

(0022 UTC 25 May 2020)
Data provider http://aviationweather.gov/metar/data/
 
METAR text: KEYW 250001Z 07006KT 4SM VCTS RA BR FEW008 BKN045 OVC060 24/23 A2988 RMK AO2 LTG DSNT N AND SE P0002 T02440228
Conditions at: KEYW (KEY WEST , FL, US) observed 0001 UTC 25 May 2020
Temperature: 24.4°C (76°F)
Dewpoint: 22.8°C (73°F) [RH = 91%]
Pressure (altimeter): 29.88 inches Hg (1011.9 mb)
Winds: from the ENE (70 degrees) at 7 MPH (6 knots; 3.1 m/s)
Visibility: 4 miles ( 6 km)
Ceiling: 4500 feet AGL
Clouds: few clouds at 800 feet AGL
broken clouds at 4500 feet AGL
overcast cloud deck at 6000 feet AGL
Weather: VCTS RA BR  (thunderstorm in vicinity, moderate rain, mist)

METAR text: KEYW 242353Z 09009KT 4SM VCTS -RA BR SCT025 BKN045 OVC060 24/23 A2988 RMK AO2 PK WND 17030/2322 LTG DSNT SE RAB05 TSB24E45 PRESRR SLP117 P0053 60053 T02390228 10294 20239 53008
Conditions at: KEYW (KEY WEST , FL, US) observed 2353 UTC 24 May 2020
Temperature: 23.9°C (75°F)
Dewpoint: 22.8°C (73°F) [RH = 94%]
Pressure (altimeter): 29.88 inches Hg (1011.9 mb)
[Sea-level pressure: 1011.7 mb]
Winds: from the E (90 degrees) at 10 MPH (9 knots; 4.6 m/s)
Visibility: 4 miles ( 6 km)
Ceiling: 4500 feet AGL
Clouds: scattered clouds at 2500 feet AGL
broken clouds at 4500 feet AGL
overcast cloud deck at 6000 feet AGL
Weather: VCTS -RA BR  (thunderstorm in vicinity, light rain, mist)

METAR text: KEYW 242345Z 08009KT 4SM VCTS RA BR FEW012 BKN026 OVC047 24/23 A2987 RMK AO2 PK WND 17030/2322 LTG DSNT SE RAB05 TSB24E45 P0050 T02440228
Conditions at: KEYW (KEY WEST , FL, US) observed 2345 UTC 24 May 2020
Temperature: 24.4°C (76°F)
Dewpoint: 22.8°C (73°F) [RH = 91%]
Pressure (altimeter): 29.87 inches Hg (1011.6 mb)
Winds: from the E (80 degrees) at 10 MPH (9 knots; 4.6 m/s)
Visibility: 4 miles ( 6 km)
Ceiling: 2600 feet AGL
Clouds: few clouds at 1200 feet AGL
broken clouds at 2600 feet AGL
overcast cloud deck at 4700 feet AGL
Weather: VCTS RA BR  (thunderstorm in vicinity, moderate rain, mist)

METAR text: KEYW 242339Z 10008KT 2SM TSRA BR FEW015 BKN026 OVC055 24/23 A2986 RMK AO2 PK WND 17030/2322 LTG DSNT SE RAB05 TSB24 P0049 T02440233
Conditions at: KEYW (KEY WEST , FL, US) observed 2339 UTC 24 May 2020
Temperature: 24.4°C (76°F)
Dewpoint: 23.3°C (74°F) [RH = 94%]
Pressure (altimeter): 29.86 inches Hg (1011.3 mb)
Winds: from the E (100 degrees) at 9 MPH (8 knots; 4.1 m/s)
Visibility: 2.00 miles (3.22 km)
Ceiling: 2600 feet AGL
Clouds: few clouds at 1500 feet AGL
broken clouds at 2600 feet AGL
overcast cloud deck at 5500 feet AGL
Weather: TSRA BR  (rain associated with thunderstorm(s), mist)

METAR text: KEYW 242336Z 11010KT 1SM +TSRA BR BKN020 BKN045 OVC055 24/23 A2986 RMK AO2 PK WND 17030/2322 LTG DSNT SE RAB05 TSB24 P0048 T02440228
Conditions at: KEYW (KEY WEST , FL, US) observed 2336 UTC 24 May 2020
Temperature: 24.4°C (76°F)
Dewpoint: 22.8°C (73°F) [RH = 91%]
Pressure (altimeter): 29.86 inches Hg (1011.3 mb)
Winds: from the ESE (110 degrees) at 12 MPH (10 knots; 5.1 m/s)
Visibility: 1.00 miles (1.61 km)
Ceiling: 2000 feet AGL
Clouds: broken clouds at 2000 feet AGL
broken clouds at 4500 feet AGL
overcast cloud deck at 5500 feet AGL
Weather: +TSRA BR  (heavy rain associated with thunderstorm(s), mist)

METAR text: KEYW 242332Z 11010G28KT 1/2SM +TSRA FG BKN014 BKN028 OVC055 24/23 A2985 RMK AO2 PK WND 17030/2322 LTG DSNT SE RAB05 TSB24 P0039 T02440228
Conditions at: KEYW (KEY WEST , FL, US) observed 2332 UTC 24 May 2020
Temperature: 24.4°C (76°F)
Dewpoint: 22.8°C (73°F) [RH = 91%]
Pressure (altimeter): 29.85 inches Hg (1010.9 mb)
Winds: from the ESE (110 degrees) at 12 MPH (10 knots; 5.1 m/s)
gusting to 32 MPH (28 knots; 14.4 m/s)
Visibility: 0.50 miles (0.80 km)
Ceiling: 1400 feet AGL
Clouds: broken clouds at 1400 feet AGL
broken clouds at 2800 feet AGL
overcast cloud deck at 5500 feet AGL
Weather: +TSRA FG  (heavy rain associated with thunderstorm(s), fog)

METAR text: KEYW 242325Z 17019G30KT 3/4SM +TSRA BKN014 BKN026 OVC055 26/23 A2986 RMK AO2 PK WND 17030/2322 LTG DSNT ALQDS RAB05 TSB24 P0001 T02560228
Conditions at: KEYW (KEY WEST , FL, US) observed 2325 UTC 24 May 2020
Temperature: 25.6°C (78°F)
Dewpoint: 22.8°C (73°F) [RH = 85%]
Pressure (altimeter): 29.86 inches Hg (1011.3 mb)
Winds: from the S (170 degrees) at 22 MPH (19 knots; 9.8 m/s)
gusting to 34 MPH (30 knots; 15.4 m/s)
Visibility: 0.75 miles (1.21 km)
Ceiling: 1400 feet AGL
Clouds: broken clouds at 1400 feet AGL
broken clouds at 2600 feet AGL
overcast cloud deck at 5500 feet AGL
Weather: +TSRA  (heavy rain associated with thunderstorm(s))

METAR text: KEYW 242323Z 17024G30KT 2SM -RA BR BKN021 OVC080 26/23 A2986 RMK AO2 PK WND 17030/2322 LTG DSNT ALQDS RAB05 P0001 T02560233
Conditions at: KEYW (KEY WEST , FL, US) observed 2323 UTC 24 May 2020
Temperature: 25.6°C (78°F)
Dewpoint: 23.3°C (74°F) [RH = 87%]
Pressure (altimeter): 29.86 inches Hg (1011.3 mb)
Winds: from the S (170 degrees) at 28 MPH (24 knots; 12.3 m/s)
gusting to 34 MPH (30 knots; 15.4 m/s)
Visibility: 2.00 miles (3.22 km)
Ceiling: 2100 feet AGL
Clouds: broken clouds at 2100 feet AGL
overcast cloud deck at 8000 feet AGL
Weather: -RA BR  (light rain, mist)

Forecast for: KEYW (KEY WEST , FL, US)
Text: KEYW 242331Z 2500/2524 12012G22KT P6SM SHRA SCT015 BKN030
Forecast period: 0000 to 1000 UTC 25 May 2020
Forecast type: FROM: standard forecast or significant change
Winds: from the ESE (120 degrees) at 14 MPH (12 knots; 6.2 m/s)
gusting to 25 MPH (22 knots; 11.3 m/s)
Visibility: 6 or more miles 10+ km)
Ceiling: 3000 feet AGL
Clouds: scattered clouds at 1500 feet AGL
broken clouds at 3000 feet AGL
Weather: SHRA  (rain showers)
Text: TEMPO 2500/2504 17018G30KT 2SM +TSRA BKN015CB
Forecast period: 0000 to 0400 UTC 25 May 2020
Forecast type: TEMPORARY: The following changes expected for less than half the time period
Winds: from the S (170 degrees) at 21 MPH (18 knots; 9.3 m/s)
gusting to 34 MPH (30 knots; 15.4 m/s)
Visibility: 2.00 miles (3.22 km)
Ceiling: 1500 feet AGL
Clouds: broken clouds at 1500 feet AGL
Weather: +TSRA  (heavy rain associated with thunderstorm(s))
Text: FM251000 15020G28KT 6SM SHRA SCT015 BKN030
Forecast period: 1000 to 1600 UTC 25 May 2020
Forecast type: FROM: standard forecast or significant change
Winds: from the SSE (150 degrees) at 23 MPH (20 knots; 10.3 m/s)
gusting to 32 MPH (28 knots; 14.4 m/s)
Visibility: 6 miles (10 km)
Ceiling: 3000 feet AGL
Clouds: scattered clouds at 1500 feet AGL
broken clouds at 3000 feet AGL
Weather: SHRA  (rain showers)
Text: FM251600 15015G25KT P6SM VCSH SCT025 BKN050
Forecast period: 1600 UTC 25 May 2020 to 0000 UTC 26 May 2020
Forecast type: FROM: standard forecast or significant change
Winds: from the SSE (150 degrees) at 17 MPH (15 knots; 7.7 m/s)
gusting to 29 MPH (25 knots; 12.9 m/s)
Visibility: 6 or more miles 10+ km)
Ceiling: 5000 feet AGL
Clouds: scattered clouds at 2500 feet AGL
broken clouds at 5000 feet AGL
Weather: VCSH  (showers in vicinity)